^^
Your Local Weather - Clay, NY Station Historical Data
Daily Summary for January 10, 2017 Units:  Metric    English   Both
« Previous Day
Next Day »
Daily Weekly Monthly Yearly Custom
  High: Low: Average:
Temperature: 1.3 °C -12.7 °C -4.7 °C
Dew Point: -2.2 °C -15.7 °C -8.5 °C
Humidity: 85% 53% 75%
Wind Speed: 14.5km/h 0km/h 5.5km/h
Wind Gust: 27.4km/h - -
Wind- - SE
Pressure: 1032.1 hPa 1008.4 hPa -
Precipitation: 2.79 mm    
Historical Graphs
 
 
Tabular Data for January 10, 2017
Time Temperature Dew Point Pressure Wind Wind Speed Wind Gust Humidity Rainfall Rate (Hourly) solar
00:00 -12.3 °C -15.2 °C 1032.1 hPa Calm     79% 0 mm 0 W/m2
00:06 -12.4 °C -15.3 °C 1032.1 hPa Calm     79% 0 mm 0 W/m2
00:12 -12.5 °C -15.2 °C 1032.1 hPa Calm     80% 0 mm 0 W/m2
00:18 -12.5 °C -15.4 °C 1032.1 hPa Calm     79% 0 mm 0 W/m2
00:24 -12.5 °C -15.6 °C 1031.7 hPa Calm   1.6 km/h 78% 0 mm 0 W/m2
00:30 -12.7 °C -15.7 °C 1031.7 hPa Calm     78% 0 mm 0 W/m2
00:36 -12.6 °C -15.5 °C 1031.7 hPa Calm     79% 0 mm 0 W/m2
00:42 -12.4 °C -15.3 °C 1031.7 hPa Calm     79% 0 mm 0 W/m2
00:48 -12.2 °C -15.3 °C 1031.7 hPa Calm   1.6 km/h 78% 0 mm 0 W/m2
00:54 -12.2 °C -15.3 °C 1031.7 hPa Calm   1.6 km/h 78% 0 mm 0 W/m2
01:00 -12.2 °C -15.2 °C 1031.7 hPa Calm     78% 0 mm 0 W/m2
01:06 -12 °C -15.1 °C 1031.7 hPa Calm     78% 0 mm 0 W/m2
01:12 -12.1 °C -15.5 °C 1031.4 hPa Calm     76% 0 mm 0 W/m2
01:18 -12.3 °C -15.6 °C 1031.4 hPa Calm   1.6 km/h 77% 0 mm 0 W/m2
01:24 -12.5 °C -15.7 °C 1031.4 hPa Calm   1.6 km/h 77% 0 mm 0 W/m2
01:30 -12.6 °C -15.6 °C 1031.4 hPa Calm     78% 0 mm 0 W/m2
01:36 -12.6 °C -15.6 °C 1031.4 hPa Calm     78% 0 mm 0 W/m2
01:42 -12.4 °C -15.5 °C 1031.4 hPa Calm   1.6 km/h 78% 0 mm 0 W/m2
01:48 -12.3 °C -15.6 °C 1031.7 hPa SSE 1.6 km/h 1.6 km/h 77% 0 mm 0 W/m2
01:54 -12.4 °C -15.4 °C 1032.1 hPa Calm   1.6 km/h 78% 0 mm 0 W/m2
02:00 -12.3 °C -15.3 °C 1031.7 hPa Calm     78% 0 mm 0 W/m2
02:06 -12.1 °C -15.2 °C 1031.7 hPa ENE 1.6 km/h 1.6 km/h 78% 0 mm 0 W/m2
02:12 -11.9 °C -15 °C 1031.7 hPa Calm     78% 0 mm 0 W/m2
02:18 -11.6 °C -14.8 °C 1032.1 hPa Calm   1.6 km/h 77% 0 mm 0 W/m2
02:24 -11.2 °C -14.8 °C 1032.1 hPa Calm   1.6 km/h 75% 0 mm 0 W/m2
02:30 -10.9 °C -14.7 °C 1031.7 hPa ENE 1.6 km/h 3.2 km/h 74% 0 mm 0 W/m2
02:36 -11.1 °C -14.8 °C 1031.4 hPa Calm   3.2 km/h 74% 0 mm 0 W/m2
03:12 -9.9 °C -14.2 °C 1031.4 hPa ENE 1.6 km/h 1.6 km/h 71% 0 mm 0 W/m2
03:18 -9.7 °C -14.1 °C 1031 hPa ENE 1.6 km/h 3.2 km/h 70% 0 mm 0 W/m2
03:24 -9.6 °C -14 °C 1031 hPa ENE 3.2 km/h 6.4 km/h 70% 0 mm 0 W/m2
03:30 -9.5 °C -14.1 °C 1031 hPa ENE 3.2 km/h 4.8 km/h 69% 0 mm 0 W/m2
03:36 -9.6 °C -14.2 °C 1031 hPa East 3.2 km/h 4.8 km/h 69% 0 mm 0 W/m2
03:42 -9.6 °C -14.2 °C 1030.7 hPa East 3.2 km/h 3.2 km/h 69% 0 mm 0 W/m2
03:48 -9.6 °C -14.2 °C 1030.7 hPa East 3.2 km/h 6.4 km/h 69% 0 mm 0 W/m2
03:54 -9.4 °C -14.3 °C 1030.7 hPa East 3.2 km/h 3.2 km/h 68% 0 mm 0 W/m2
04:00 -9.4 °C -14 °C 1030.7 hPa ENE 4.8 km/h 4.8 km/h 69% 0 mm 0 W/m2
04:06 -9.4 °C -14.2 °C 1030.7 hPa East 4.8 km/h 4.8 km/h 68% 0 mm 0 W/m2
04:12 -9.6 °C -14.2 °C 1030.7 hPa ENE 4.8 km/h 4.8 km/h 69% 0 mm 0 W/m2
04:18 -9.7 °C -14.3 °C 1030.7 hPa ENE 3.2 km/h 4.8 km/h 69% 0 mm 0 W/m2
04:24 -9.8 °C -14.3 °C 1030.4 hPa ENE 3.2 km/h 3.2 km/h 70% 0 mm 0 W/m2
04:30 -9.8 °C -14.2 °C 1030.4 hPa East 3.2 km/h 3.2 km/h 70% 0 mm 0 W/m2
04:36 -9.8 °C -14.3 °C 1030.4 hPa ENE 3.2 km/h 8 km/h 70% 0 mm 0 W/m2
04:42 -10 °C -14.3 °C 1030.4 hPa East 3.2 km/h 3.2 km/h 71% 0 mm 0 W/m2
04:48 -10.1 °C -14.2 °C 1030.4 hPa East 1.6 km/h 4.8 km/h 72% 0 mm 0 W/m2
04:54 -10.1 °C -14.2 °C 1030.4 hPa ESE 3.2 km/h 8 km/h 72% 0 mm 0 W/m2
05:00 -10 °C -14.1 °C 1030.4 hPa ENE 3.2 km/h 4.8 km/h 72% 0 mm 0 W/m2
05:06 -9.9 °C -14.1 °C 1030 hPa East 3.2 km/h 4.8 km/h 72% 0 mm 0 W/m2
05:12 -9.8 °C -13.9 °C 1030.4 hPa East 3.2 km/h 3.2 km/h 72% 0 mm 0 W/m2
05:18 -9.7 °C -13.8 °C 1030 hPa ENE 3.2 km/h 3.2 km/h 72% 0 mm 0 W/m2
05:24 -9.6 °C -13.7 °C 1030 hPa East 3.2 km/h 4.8 km/h 72% 0 mm 0 W/m2
05:30 -9.4 °C -13.7 °C 1030 hPa ENE 4.8 km/h 6.4 km/h 71% 0 mm 0 W/m2
05:36 -9.3 °C -13.6 °C 1030 hPa ENE 4.8 km/h 6.4 km/h 71% 0 mm 0 W/m2
05:42 -9.3 °C -13.6 °C 1030 hPa ENE 4.8 km/h 8 km/h 71% 0 mm 0 W/m2
05:48 -9.2 °C -13.7 °C 1029.7 hPa East 4.8 km/h 8 km/h 70% 0 mm 0 W/m2
05:54 -9.2 °C -13.4 °C 1029.7 hPa East 3.2 km/h 4.8 km/h 71% 0 mm 0 W/m2
06:00 -9.1 °C -13.6 °C 1029.3 hPa ESE 4.8 km/h 4.8 km/h 70% 0 mm 0 W/m2
06:06 -9 °C -13.5 °C 1029.3 hPa East 4.8 km/h 4.8 km/h 70% 0 mm 0 W/m2
06:12 -8.9 °C -13.6 °C 1029.3 hPa East 3.2 km/h 4.8 km/h 69% 0 mm 0 W/m2
06:18 -8.8 °C -13.4 °C 1029 hPa ENE 4.8 km/h 4.8 km/h 69% 0 mm 0 W/m2
06:24 -8.7 °C -13.3 °C 1029 hPa ENE 3.2 km/h 4.8 km/h 69% 0 mm 0 W/m2
06:30 -8.6 °C -13.2 °C 1029 hPa East 3.2 km/h 4.8 km/h 69% 0 mm 0 W/m2
06:36 -8.4 °C -13.2 °C 1029 hPa ENE 3.2 km/h 4.8 km/h 68% 0 mm 0 W/m2
06:42 -8.3 °C -13.3 °C 1029 hPa East 3.2 km/h 8 km/h 67% 0 mm 0 W/m2
06:48 -8.2 °C -13.3 °C 1029 hPa ENE 3.2 km/h 8 km/h 67% 0 mm 0 W/m2
06:54 -8.1 °C -13.2 °C 1029 hPa NE 3.2 km/h 9.7 km/h 67% 0 mm 0 W/m2
07:00 -8.1 °C -13.1 °C 1029.3 hPa ENE 4.8 km/h 6.4 km/h 67% 0 mm 0 W/m2
07:06 -7.9 °C -13 °C 1029 hPa ENE 3.2 km/h 6.4 km/h 67% 0 mm 0 W/m2
07:12 -7.9 °C -13 °C 1029 hPa East 3.2 km/h 3.2 km/h 67% 0 mm 0 W/m2
07:18 -7.9 °C -12.9 °C 1029 hPa NE 3.2 km/h 8 km/h 67% 0 mm 0 W/m2
07:24 -7.8 °C -12.9 °C 1029 hPa ENE 3.2 km/h 4.8 km/h 67% 0 mm 0 W/m2
07:30 -7.8 °C -12.8 °C 1029 hPa SE 3.2 km/h 3.2 km/h 67% 0 mm 0 W/m2
07:36 -7.7 °C -12.8 °C 1029 hPa ENE 3.2 km/h 4.8 km/h 67% 0 mm 0 W/m2
07:42 -7.6 °C -12.7 °C 1029.3 hPa ENE 3.2 km/h 4.8 km/h 67% 0 mm 0 W/m2
07:48 -7.6 °C -12.6 °C 1029.3 hPa NE 1.6 km/h 4.8 km/h 67% 0 mm 7 W/m2
07:54 -7.6 °C -12.6 °C 1029.3 hPa East 3.2 km/h 3.2 km/h 67% 0 mm 9 W/m2
08:00 -7.5 °C -12.2 °C 1029 hPa ENE 3.2 km/h 4.8 km/h 69% 0 mm 11 W/m2
08:06 -7.4 °C -12.3 °C 1029 hPa ENE 3.2 km/h 9.7 km/h 68% 0 mm 12 W/m2
08:12 -7.4 °C -12.1 °C 1029.3 hPa East 4.8 km/h 8 km/h 69% 0 mm 16 W/m2
08:18 -7.4 °C -12.1 °C 1029 hPa ENE 4.8 km/h 8 km/h 69% 0 mm 19 W/m2
08:24 -7.3 °C -12.2 °C 1029.3 hPa East 4.8 km/h 4.8 km/h 68% 0 mm 25 W/m2
08:30 -7.3 °C -12 °C 1029.3 hPa East 4.8 km/h 4.8 km/h 69% 0 mm 28 W/m2
08:36 -7.2 °C -11.9 °C 1029 hPa East 4.8 km/h 8 km/h 69% 0 mm 28 W/m2
08:42 -7.1 °C -11.8 °C 1029.3 hPa ENE 3.2 km/h 6.4 km/h 69% 0 mm 30 W/m2
08:48 -7.1 °C -11.8 °C 1029.3 hPa ENE 3.2 km/h 6.4 km/h 69% 0 mm 35 W/m2
08:54 -7 °C -11.7 °C 1029.3 hPa ENE 3.2 km/h 4.8 km/h 69% 0 mm 44 W/m2
09:00 -6.9 °C -11.6 °C 1029.3 hPa ESE 3.2 km/h 4.8 km/h 69% 0 mm 44 W/m2
09:06 -6.8 °C -11.5 °C 1029 hPa ENE 3.2 km/h 4.8 km/h 69% 0 mm 47 W/m2
09:12 -6.7 °C -11.6 °C 1029 hPa East 3.2 km/h 6.4 km/h 68% 0 mm 60 W/m2
09:18 -6.5 °C -11.4 °C 1028.7 hPa East 3.2 km/h 6.4 km/h 68% 0 mm 79 W/m2
09:24 -6.3 °C -11.4 °C 1028.7 hPa East 3.2 km/h 4.8 km/h 67% 0 mm 88 W/m2
09:30 -6.1 °C -11.2 °C 1028.7 hPa East 3.2 km/h 3.2 km/h 67% 0 mm 98 W/m2
09:36 -5.8 °C -11.1 °C 1028.7 hPa East 3.2 km/h 4.8 km/h 66% 0 mm 104 W/m2
09:42 -5.4 °C -11 °C 1028.3 hPa East 3.2 km/h 3.2 km/h 65% 0 mm 95 W/m2
09:48 -4.9 °C -11.1 °C 1028 hPa East 3.2 km/h 4.8 km/h 62% 0 mm 116 W/m2
09:54 -4.4 °C -11.5 °C 1027.7 hPa South 4.8 km/h 6.4 km/h 58% 0 mm 127 W/m2
10:00 -4.2 °C -11.4 °C 1027.7 hPa ESE 6.4 km/h 6.4 km/h 57% 0 mm 125 W/m2
10:06 -3.9 °C -11.4 °C 1028 hPa SE 6.4 km/h 16.1 km/h 56% 0 mm 116 W/m2
10:12 -3.8 °C -11.8 °C 1028 hPa SSE 6.4 km/h 9.7 km/h 54% 0 mm 114 W/m2
10:18 -3.7 °C -11.9 °C 1027.7 hPa SSE 6.4 km/h 11.3 km/h 53% 0 mm 118 W/m2
10:26 -3.6 °C -11.6 °C 1027.7 hPa ESE 6.4 km/h 8 km/h 54% 0 mm 88 W/m2
10:32 -3.5 °C -11.7 °C 1027.7 hPa South 6.4 km/h 6.4 km/h 53% 0 mm 83 W/m2
10:38 -3.4 °C -11.6 °C 1027.3 hPa SSE 6.4 km/h 6.4 km/h 53% 0 mm 95 W/m2
10:46 -3.3 °C -11.3 °C 1027 hPa SE 6.4 km/h 16.1 km/h 54% 0 mm 111 W/m2
10:52 -3.2 °C -10.8 °C 1026.6 hPa SSE 8 km/h 9.7 km/h 56% 0 mm 107 W/m2
10:58 -3.3 °C -9.8 °C 1027 hPa SSE 8 km/h 14.5 km/h 61% 0 mm 104 W/m2
11:04 -3.6 °C -9.2 °C 1026.6 hPa ESE 8 km/h 9.7 km/h 65% 0 mm 84 W/m2
11:10 -3.8 °C -8.2 °C 1026.3 hPa SE 9.7 km/h 9.7 km/h 72% 0 mm 67 W/m2
11:16 -4 °C -7.4 °C 1026 hPa SE 8 km/h 9.7 km/h 77% 0 mm 65 W/m2
11:22 -4.2 °C -6.9 °C 1026 hPa SSE 8 km/h 9.7 km/h 81% 0 mm 63 W/m2
11:28 -4.3 °C -6.7 °C 1025.6 hPa SE 11.3 km/h 11.3 km/h 83% 0 mm 63 W/m2
11:36 -4.4 °C -6.7 °C 1024.9 hPa SSE 9.7 km/h 12.9 km/h 84% 0 mm 74 W/m2
11:42 -4.6 °C -6.8 °C 1025.3 hPa ESE 4.8 km/h 4.8 km/h 84% 0 mm 60 W/m2
11:48 -4.6 °C -6.7 °C 1024.9 hPa SE 6.4 km/h 6.4 km/h 85% 0 mm 84 W/m2
11:54 -4.6 °C -6.7 °C 1024.9 hPa SE 6.4 km/h 9.7 km/h 85% 0 mm 83 W/m2
12:00 -4.6 °C -6.7 °C 1024.9 hPa ESE 8 km/h 8 km/h 85% 0 mm 86 W/m2
12:06 -4.5 °C -6.7 °C 1024.9 hPa SE 6.4 km/h 8 km/h 85% 0 mm 84 W/m2
12:12 -4.4 °C -6.7 °C 1024.6 hPa East 6.4 km/h 8 km/h 84% 0 mm 72 W/m2
12:18 -4.3 °C -6.6 °C 1024.3 hPa NE 6.4 km/h 8 km/h 84% 0 mm 79 W/m2
12:24 -4.2 °C -6.5 °C 1023.9 hPa SE 4.8 km/h 4.8 km/h 84% 0 mm 86 W/m2
12:30 -4.1 °C -6.6 °C 1023.9 hPa ESE 6.4 km/h 6.4 km/h 83% 0 mm 113 W/m2
12:36 -3.9 °C -6.5 °C 1023.6 hPa East 6.4 km/h 9.7 km/h 82% 0 mm 132 W/m2
12:42 -3.5 °C -6.4 °C 1023.6 hPa ESE 4.8 km/h 8 km/h 80% 0 mm 118 W/m2
12:48 -3.2 °C -6.3 °C 1023.6 hPa SSE 6.4 km/h 11.3 km/h 79% 0 mm 128 W/m2
12:54 -2.9 °C -6.2 °C 1023.6 hPa South 4.8 km/h 6.4 km/h 78% 0 mm 114 W/m2
13:00 -2.7 °C -6.4 °C 1023.2 hPa SE 4.8 km/h 4.8 km/h 76% 0 mm 123 W/m2
13:06 -2.6 °C -6.6 °C 1022.9 hPa SSE 8 km/h 12.9 km/h 74% 0 mm 100 W/m2
13:12 -2.4 °C -6.6 °C 1022.9 hPa SE 9.7 km/h 9.7 km/h 73% 0 mm 91 W/m2
13:18 -2.3 °C -6.7 °C 1022.6 hPa SE 8 km/h 9.7 km/h 72% 0 mm 86 W/m2
13:24 -2.3 °C -6.7 °C 1022.6 hPa South 6.4 km/h 8 km/h 72% 0 mm 84 W/m2
13:30 -2.2 °C -6.6 °C 1022.2 hPa SE 6.4 km/h 8 km/h 72% 0 mm 72 W/m2
13:36 -2.2 °C -6.7 °C 1021.9 hPa SE 6.4 km/h 8 km/h 71% 0 mm 67 W/m2
13:42 -2.1 °C -6.5 °C 1021.9 hPa SSE 6.4 km/h 12.9 km/h 72% 0 mm 58 W/m2
13:48 -2 °C -6.6 °C 1021.6 hPa SSE 8 km/h 12.9 km/h 71% 0 mm 62 W/m2
13:56 -1.9 °C -6.4 °C 1021.2 hPa SSE 9.7 km/h 9.7 km/h 71% 0 mm 62 W/m2
14:02 -1.8 °C -6.2 °C 1021.2 hPa South 8 km/h 9.7 km/h 72% 0 mm 51 W/m2
14:08 -1.8 °C -6.2 °C 1021.2 hPa South 8 km/h 20.9 km/h 72% 0 mm 42 W/m2
14:16 -1.8 °C -6.2 °C 1021.2 hPa SSE 9.7 km/h 9.7 km/h 72% 0 mm 46 W/m2
14:22 -1.8 °C -6.2 °C 1021.2 hPa SE 9.7 km/h 9.7 km/h 72% 0 mm 49 W/m2
14:28 -1.8 °C -5.8 °C 1021.2 hPa South 11.3 km/h 11.3 km/h 74% 0 mm 37 W/m2
14:34 -1.9 °C -5.7 °C 1021.2 hPa SSE 9.7 km/h 12.9 km/h 75% 0 mm 30 W/m2
14:40 -1.9 °C -5.7 °C 1021.2 hPa SSE 9.7 km/h 9.7 km/h 75% 0 mm 26 W/m2
14:46 -1.9 °C -5.6 °C 1020.9 hPa SE 11.3 km/h 12.9 km/h 76% 0 mm 23 W/m2
14:52 -2 °C -5.5 °C 1020.9 hPa SE 11.3 km/h 14.5 km/h 77% 0 mm 21 W/m2
14:58 -2.1 °C -5.4 °C 1020.9 hPa South 12.9 km/h 17.7 km/h 78% 0 mm 19 W/m2
15:06 -2.1 °C -5.3 °C 1020.5 hPa SSE 11.3 km/h 14.5 km/h 79% 0 mm 18 W/m2
15:12 -2.1 °C -5.2 °C 1020.2 hPa SE 12.9 km/h 22.5 km/h 79% 0 mm 16 W/m2
15:18 -2 °C -5.2 °C 1020.2 hPa SE 12.9 km/h 22.5 km/h 79% 0 mm 12 W/m2
15:26 -1.9 °C -4.9 °C 1019.5 hPa SSE 12.9 km/h 12.9 km/h 80% 0 mm 11 W/m2
15:28 -1.9 °C -4.9 °C 1019.5 hPa South 14.5 km/h 14.5 km/h 80% 0 mm 11 W/m2
15:36 -1.9 °C -4.6 °C 1019.2 hPa SSE 11.3 km/h 12.9 km/h 82% 0 mm 11 W/m2
15:42 -1.8 °C -4.5 °C 1019.2 hPa ENE 12.9 km/h 12.9 km/h 82% 0 mm 11 W/m2
15:48 -1.7 °C -4.2 °C 1018.8 hPa SE 9.7 km/h 12.9 km/h 83% 0 mm 7 W/m2
15:54 -1.7 °C -4.2 °C 1018.5 hPa SSE 9.7 km/h 16.1 km/h 83% 0 mm 7 W/m2
16:00 -1.6 °C -4.1 °C 1018.5 hPa ENE 12.9 km/h 12.9 km/h 83% 0 mm 7 W/m2
16:06 -1.6 °C -4.1 °C 1018.2 hPa SE 11.3 km/h 12.9 km/h 83% 0 mm 5 W/m2
16:12 -1.5 °C -3.8 °C 1017.8 hPa SE 9.7 km/h 9.7 km/h 84% 0 mm 5 W/m2
16:18 -1.5 °C -3.8 °C 1017.5 hPa NE 8 km/h 9.7 km/h 84% 0 mm 5 W/m2
16:24 -1.6 °C -3.9 °C 1017.5 hPa ENE 6.4 km/h 11.3 km/h 84% 0 mm 0 W/m2
16:30 -1.3 °C -4 °C 1017.5 hPa ESE 8 km/h 8 km/h 82% 0 mm 0 W/m2
16:36 -1.2 °C -3.9 °C 1017.5 hPa SSE 9.7 km/h 19.3 km/h 82% 0 mm 0 W/m2
16:42 -1.1 °C -3.9 °C 1017.5 hPa SSE 9.7 km/h 11.3 km/h 81% 0 mm 0 W/m2
16:48 -0.9 °C -3.8 °C 1017.5 hPa SSE 9.7 km/h 16.1 km/h 81% 0 mm 0 W/m2
16:54 -0.8 °C -4.2 °C 1017.5 hPa SE 11.3 km/h 14.5 km/h 78% 0 mm 0 W/m2
17:00 -0.9 °C -3.9 °C 1017.2 hPa South 8 km/h 8 km/h 80% 0 mm 0 W/m2
17:06 -0.8 °C -4.4 °C 1017.2 hPa SE 8 km/h 14.5 km/h 77% 0 mm 0 W/m2
17:12 -0.9 °C -4.4 °C 1017.2 hPa SE 8 km/h 8 km/h 77% 0 mm 0 W/m2
17:18 -0.9 °C -4.2 °C 1016.8 hPa SSE 4.8 km/h 8 km/h 78% 0 mm 0 W/m2
17:24 -0.8 °C -4.4 °C 1016.8 hPa SE 6.4 km/h 14.5 km/h 77% 0 mm 0 W/m2
17:30 -0.9 °C -4.2 °C 1016.5 hPa SE 6.4 km/h 12.9 km/h 78% 0 mm 0 W/m2
17:36 -0.8 °C -4.3 °C 1016.5 hPa SSE 8 km/h 12.9 km/h 77% 0 mm 0 W/m2
17:42 -0.8 °C -4.1 °C 1016.5 hPa South 8 km/h 9.7 km/h 78% 0 mm 0 W/m2
17:48 -0.8 °C -4.4 °C 1016.1 hPa SSE 6.4 km/h 9.7 km/h 77% 0 mm 0 W/m2
17:54 -0.8 °C -4.2 °C 1015.8 hPa SW 6.4 km/h 8 km/h 78% 0 mm 0 W/m2
18:00 -0.8 °C -4.3 °C 1015.8 hPa SSE 8 km/h 8 km/h 77% 0 mm 0 W/m2
18:06 -0.8 °C -4.1 °C 1015.5 hPa SSE 8 km/h 9.7 km/h 78% 0 mm 0 W/m2
18:12 -0.8 °C -4.2 °C 1015.5 hPa ESE 6.4 km/h 12.9 km/h 78% 0 mm 0 W/m2
18:18 -0.7 °C -4.3 °C 1015.5 hPa SSE 8 km/h 16.1 km/h 77% 0 mm 0 W/m2
18:24 -0.7 °C -4.3 °C 1015.5 hPa SSE 8 km/h 16.1 km/h 77% 0 mm 0 W/m2
18:30 -0.7 °C -4.1 °C 1015.1 hPa SSE 8 km/h 9.7 km/h 78% 0 mm 0 W/m2
18:36 -0.6 °C -4.1 °C 1015.1 hPa SSE 9.7 km/h 12.9 km/h 77% 0 mm 0 W/m2
18:42 -0.6 °C -4.1 °C 1015.1 hPa South 8 km/h 9.7 km/h 77% 0 mm 0 W/m2
18:48 -0.5 °C -4.1 °C 1015.1 hPa SW 8 km/h 12.9 km/h 77% 0 mm 0 W/m2
18:54 -0.4 °C -3.8 °C 1015.5 hPa SE 8 km/h 12.9 km/h 78% 0 mm 0 W/m2
19:00 -0.4 °C -3.8 °C 1015.1 hPa ESE 6.4 km/h 6.4 km/h 78% 0 mm 0 W/m2
19:06 -0.4 °C -3.8 °C 1014.8 hPa SSE 8 km/h 9.7 km/h 78% 0 mm 0 W/m2
19:12 -0.4 °C -3.8 °C 1014.8 hPa SSE 8 km/h 8 km/h 78% 0 mm 0 W/m2
19:18 -0.4 °C -3.9 °C 1014.8 hPa SSE 6.4 km/h 12.9 km/h 77% 0 mm 0 W/m2
19:24 -0.4 °C -3.6 °C 1015.1 hPa SSE 8 km/h 9.7 km/h 79% 0 mm 0 W/m2
19:30 -0.5 °C -3.5 °C 1014.8 hPa SSW 9.7 km/h 11.3 km/h 80% 0 mm 0 W/m2
19:36 -0.6 °C -3.4 °C 1014.8 hPa SSE 11.3 km/h 12.9 km/h 81% 0 mm 0 W/m2
19:42 -0.6 °C -3.3 °C 1014.4 hPa SE 9.7 km/h 12.9 km/h 82% 0 mm 0 W/m2
19:48 -0.7 °C -3.2 °C 1014.4 hPa SSE 8 km/h 12.9 km/h 83% 0 mm 0 W/m2
19:54 -0.7 °C -3.3 °C 1014.4 hPa SSE 6.4 km/h 8 km/h 83% 0 mm 0 W/m2
20:00 -0.7 °C -3.3 °C 1014.1 hPa SSE 8 km/h 12.9 km/h 82% 0 mm 0 W/m2
20:06 -0.6 °C -3.3 °C 1013.8 hPa SE 8 km/h 12.9 km/h 82% 0 mm 0 W/m2
20:12 -0.5 °C -3.3 °C 1013.8 hPa SSE 6.4 km/h 6.4 km/h 81% 0 mm 0 W/m2
20:18 -0.3 °C -3.4 °C 1013.4 hPa SSE 6.4 km/h 9.7 km/h 80% 0 mm 0 W/m2
20:24 -0.1 °C -3.3 °C 1013.1 hPa South 9.7 km/h 17.7 km/h 79% 0 mm 0 W/m2
20:30 -0.1 °C -3.3 °C 1013.1 hPa SSE 9.7 km/h 9.7 km/h 79% 0 mm 0 W/m2
20:36 -0.1 °C -3.2 °C 1012.8 hPa SSE 6.4 km/h 12.9 km/h 80% 0 mm 0 W/m2
20:42 -0.2 °C -3.2 °C 1012.4 hPa SSE 6.4 km/h 9.7 km/h 80% 0 mm 0 W/m2
20:48 -0.1 °C -3.4 °C 1012.4 hPa ESE 9.7 km/h 27.4 km/h 78% 0 mm 0 W/m2
20:54 -0.1 °C -3.3 °C 1012.4 hPa SE 9.7 km/h 9.7 km/h 79% 0 mm 0 W/m2
21:00 0.1 °C -3.2 °C 1012.4 hPa SE 8 km/h 8 km/h 79% 0 mm 0 W/m2
21:06 0.2 °C -3 °C 1011.7 hPa SSE 8 km/h 20.9 km/h 79% 0 mm 0 W/m2
21:12 0.4 °C -2.8 °C 1011.7 hPa SSE 9.7 km/h 11.3 km/h 79% 0 mm 0 W/m2
21:18 0.3 °C -2.7 °C 1011.4 hPa SE 8 km/h 11.3 km/h 80% 0 mm 0 W/m2
21:24 0.4 °C -2.6 °C 1011.1 hPa SSW 8 km/h 11.3 km/h 80% 0 mm 0 W/m2
21:30 0.5 °C -2.4 °C 1011.1 hPa East 9.7 km/h 9.7 km/h 81% 1.02 mm 0 W/m2
21:36 0.5 °C -2.4 °C 1011.1 hPa South 9.7 km/h 9.7 km/h 81% 3.56 mm 0 W/m2
21:42 0.3 °C -2.4 °C 1011.4 hPa South 6.4 km/h 6.4 km/h 82% 2.29 mm 0 W/m2
21:48 0.3 °C -2.4 °C 1011.4 hPa SSE 4.8 km/h 11.3 km/h 82% 2.29 mm 0 W/m2
21:54 0.4 °C -2.5 °C 1010.7 hPa SSE 8 km/h 14.5 km/h 81% 1.52 mm 0 W/m2
22:00 0.5 °C -2.2 °C 1010.7 hPa SSE 8 km/h 12.9 km/h 82% 1.52 mm 0 W/m2
22:06 0.8 °C -2.4 °C 1010.7 hPa South 9.7 km/h 17.7 km/h 79% 1.02 mm 0 W/m2
22:12 0.8 °C -2.6 °C 1010.4 hPa SSE 11.3 km/h 14.5 km/h 78% 0 mm 0 W/m2
22:18 0.9 °C -2.3 °C 1010.4 hPa SE 9.7 km/h 14.5 km/h 79% 0 mm 0 W/m2
22:24 0.8 °C -2.2 °C 1010 hPa ESE 8 km/h 12.9 km/h 80% 0 mm 0 W/m2
22:30 0.7 °C -2.2 °C 1010 hPa South 4.8 km/h 4.8 km/h 81% 0 mm 0 W/m2
22:36 0.7 °C -2.2 °C 1010 hPa Calm   4.8 km/h 81% 0 mm 0 W/m2
22:42 0.8 °C -2.3 °C 1009.4 hPa Calm     80% 0 mm 0 W/m2
22:48 0.8 °C -2.4 °C 1009.7 hPa Calm     79% 1.02 mm 0 W/m2
22:54 0.9 °C -2.3 °C 1010 hPa Calm     79% 1.02 mm 0 W/m2
23:00 0.9 °C -2.3 °C 1009.7 hPa Calm     79% 1.02 mm 0 W/m2
23:06 0.9 °C -2.5 °C 1009.4 hPa Calm     78% 0 mm 0 W/m2
23:12 0.9 °C -2.5 °C 1009.4 hPa Calm     78% 0 mm 0 W/m2
23:18 1 °C -2.6 °C 1009.4 hPa Calm     77% 0 mm 0 W/m2
23:24 1 °C -2.8 °C 1009 hPa Calm     76% 0 mm 0 W/m2
23:30 1.1 °C -2.7 °C 1009.4 hPa Calm     76% 0 mm 0 W/m2
23:36 1.1 °C -2.7 °C 1009 hPa Calm     76% 0 mm 0 W/m2
23:42 1.1 °C -2.7 °C 1009 hPa Calm     76% 0 mm 0 W/m2
23:48 1.1 °C -2.7 °C 1009 hPa Calm     76% 0 mm 0 W/m2
23:55 1.3 °C -2.7 °C 1008.4 hPa Calm     75% 0 mm 0 W/m2
Country Meadow, Clay, NY, USA
Compliments of Weather Underground - 2 mb